Sea Drift — WDC2818 — position and weather

sailwx.info

Track history (hours):
 
Tides and Currents Weather Stations Pressure Air Temp Water Temp Dewpoint Dewpoint Depression Visibility Wind Speed Wind Dir Waves Ship Positions

Sea Drift

Owner: Marquette Transportation Company Gulf-Inland, LLC, Jefferson, LA. More information available from US FCC via Universal Licensing System and Coast Guard Vessel Documentation Center.

Last reported at 2017-Mar-29 08:32 UTC. Time now 2017-Mar-29 22:56 UTC.
Position N 29°36' W 090°58'.

Length 23 m; draft 3 m.

Type: Towing. MMSI: 366998080.

Date/timePositionNaut miles runAvg speedWind from/ knotsBaromVisibWave heightAir tempDewpointWater temp
2017-Mar-29 08:32N 29°36' W 090°58'7 5.3
2017-Mar-29 07:17N 29°32' W 090°52'4 5.4
2017-Mar-29 06:33N 29°32' W 090°47'4 4.4
2017-Mar-29 05:33N 29°35' W 090°43'2 2.3
2017-Mar-29 04:34N 29°37' W 090°42'1 0.7
2017-Mar-29 03:33N 29°37' W 090°41'5 4.9
2017-Mar-29 02:34N 29°35' W 090°36'5 5.4
2017-Mar-29 01:33N 29°34' W 090°30'1 0.0
2017-Mar-27 10:30N 29°34' W 090°29'4 4.6
2017-Mar-27 09:33N 29°34' W 090°34'3 3.1
2017-Mar-27 08:33N 29°35' W 090°38'4 3.8
2017-Mar-27 07:33N 29°37' W 090°42'3 3.3
2017-Mar-27 06:33N 29°34' W 090°44'1 0.7
2017-Mar-27 05:33N 29°34' W 090°44'1 0.7
2017-Mar-27 04:33N 29°33' W 090°45'3 3.1
2017-Mar-27 03:33N 29°32' W 090°48'6 5.6
2017-Mar-27 02:33N 29°33' W 090°55'52 2.4
2017-Mar-26 04:30N 29°51' W 091°51'5 5.5
2017-Mar-26 03:33N 29°50' W 091°57'5 4.9
2017-Mar-26 02:34N 29°49' W 092°02'5 4.7
2017-Mar-26 01:33N 29°47' W 092°08'4 3.9
2017-Mar-26 00:33N 29°47' W 092°12'2 1.8
2017-Mar-25 23:33N 29°48' W 092°14'1 1.3
2017-Mar-25 22:33N 29°48' W 092°15'0 0.1
2017-Mar-25 21:34N 29°48' W 092°15'0 0.0
2017-Mar-25 20:33N 29°48' W 092°15'0 0.0
2017-Mar-25 19:33N 29°48' W 092°15'0 0.0
2017-Mar-25 18:33N 29°48' W 092°15'0 0.1
2017-Mar-25 17:33N 29°48' W 092°15'0 0.3
2017-Mar-25 16:33N 29°48' W 092°16'1 0.5
2017-Mar-25 15:33N 29°49' W 092°16'3 3.4
2017-Mar-25 14:33N 29°50' W 092°19'3 3.5
2017-Mar-25 13:33N 29°52' W 092°23'6 4.2
2017-Mar-25 12:04N 29°54' W 092°30'29 3.3
2017-Mar-25 03:25N 29°56' W 093°02'3 3.0
2017-Mar-25 02:31N 29°56' W 093°06'3 3.6
2017-Mar-25 01:33N 29°56' W 093°10'4 3.9
2017-Mar-25 00:33N 29°59' W 093°12'4 3.5
2017-Mar-24 23:33N 30°02' W 093°15'3 3.3
2017-Mar-24 22:33N 30°05' W 093°17'2 2.1
2017-Mar-24 21:33N 30°06' W 093°19'0 0.3
2017-Mar-24 20:33N 30°06' W 093°19'0 0.0
2017-Mar-24 19:33N 30°06' W 093°19'0 0.0
2017-Mar-24 18:33N 30°06' W 093°19'0 0.0
2017-Mar-24 17:33N 30°06' W 093°19'1 1.4
2017-Mar-24 16:33N 30°05' W 093°20'3 2.7
2017-Mar-24 15:33N 30°04' W 093°23'4 3.5
2017-Mar-24 14:33N 30°04' W 093°27'3 3.2
2017-Mar-24 13:33N 30°04' W 093°30'4 3.9
2017-Mar-24 12:33N 30°04' W 093°35'4 4.4
2017-Mar-24 11:33N 30°04' W 093°40'13 1.6
2017-Mar-24 03:33N 29°56' W 093°52'21 1.6
2017-Mar-23 14:33N 29°41' W 094°09'4 3.4
2017-Mar-23 13:26N 29°40' W 094°14'35 2.9
2017-Mar-23 01:21N 29°30' W 094°53'4 5.4
2017-Mar-23 00:33N 29°34' W 094°55'6 5.9
2017-Mar-22 23:33N 29°39' W 094°58'5 4.7
2017-Mar-22 22:33N 29°43' W 095°01'4 3.8
2017-Mar-22 21:25N 29°45' W 095°06'1 0.1
2017-Mar-22 16:31N 29°46' W 095°05'4 4.4
2017-Mar-22 15:33N 29°43' W 095°01'6 5.6
2017-Mar-22 14:33N 29°39' W 094°58'7 6.6
2017-Mar-22 13:33N 29°33' W 094°54'71 3.4
2017-Mar-21 16:33N 30°04' W 093°41'4 4.2
2017-Mar-21 15:33N 30°04' W 093°36'4 3.5
2017-Mar-21 14:33N 30°04' W 093°32'4 3.8
2017-Mar-21 13:33N 30°04' W 093°28'4 3.7
2017-Mar-21 12:33N 30°04' W 093°23'3 2.6
2017-Mar-21 11:33N 30°04' W 093°20'2 2.2
2017-Mar-21 10:33N 30°06' W 093°19'2 1.6
2017-Mar-21 09:33N 30°05' W 093°17'2 1.6
2017-Mar-21 08:33N 30°04' W 093°16'1 0.9
2017-Mar-21 07:34N 30°03' W 093°16'2 2.1
2017-Mar-21 06:33N 30°02' W 093°14'4 3.6
2017-Mar-21 05:33N 29°59' W 093°12'4 3.6
2017-Mar-21 04:33N 29°56' W 093°09'8 0.6
2017-Mar-20 14:32N 29°56' W 092°60'4 3.3
2017-Mar-20 13:28N 29°56' W 093°04'3 3.1
2017-Mar-20 12:33N 29°56' W 093°07'3 2.6
2017-Mar-20 11:34N 29°57' W 093°10'4 3.6
2017-Mar-20 10:33N 29°59' W 093°13'4 3.7
2017-Mar-20 09:33N 30°02' W 093°16'4 3.5
2017-Mar-20 08:33N 30°05' W 093°18'2 1.5
2017-Mar-20 07:33N 30°06' W 093°19'3 2.7
2017-Mar-20 06:33N 30°04' W 093°22'0 0.0
2017-Mar-20 05:33N 30°04' W 093°22'1 1.0
2017-Mar-20 04:33N 30°04' W 093°23'3 2.5
2017-Mar-20 03:33N 30°04' W 093°26'5 4.6
2017-Mar-20 02:33N 30°04' W 093°31'5 4.6
2017-Mar-20 01:33N 30°04' W 093°36'5 4.6
2017-Mar-20 00:33N 30°04' W 093°42'  
Track history (hours):
 
Tides and Currents Weather Stations Pressure Air Temp Water Temp Dewpoint Dewpoint Depression Visibility Wind Speed Wind Dir Waves Ship Positions

Sea Drift

Owner: Marquette Transportation Company Gulf-Inland, LLC, Jefferson, LA. More information available from US FCC via Universal Licensing System and Coast Guard Vessel Documentation Center.

Last reported at 2017-Mar-29 08:32 UTC. Time now 2017-Mar-29 22:56 UTC.
Position N 29°36' W 090°58'.

Length 23 m; draft 3 m.

Type: Towing. MMSI: 366998080.

Date/timePositionNaut miles runAvg speedWind from/ knotsBaromVisibWave heightAir tempDewpointWater temp
2017-Mar-29 08:32N 29°36' W 090°58'7 5.3
2017-Mar-29 07:17N 29°32' W 090°52'4 5.4
2017-Mar-29 06:33N 29°32' W 090°47'4 4.4
2017-Mar-29 05:33N 29°35' W 090°43'2 2.3
2017-Mar-29 04:34N 29°37' W 090°42'1 0.7
2017-Mar-29 03:33N 29°37' W 090°41'5 4.9
2017-Mar-29 02:34N 29°35' W 090°36'5 5.4
2017-Mar-29 01:33N 29°34' W 090°30'1 0.0
2017-Mar-27 10:30N 29°34' W 090°29'4 4.6
2017-Mar-27 09:33N 29°34' W 090°34'3 3.1
2017-Mar-27 08:33N 29°35' W 090°38'4 3.8
2017-Mar-27 07:33N 29°37' W 090°42'3 3.3
2017-Mar-27 06:33N 29°34' W 090°44'1 0.7
2017-Mar-27 05:33N 29°34' W 090°44'1 0.7
2017-Mar-27 04:33N 29°33' W 090°45'3 3.1
2017-Mar-27 03:33N 29°32' W 090°48'6 5.6
2017-Mar-27 02:33N 29°33' W 090°55'52 2.4
2017-Mar-26 04:30N 29°51' W 091°51'5 5.5
2017-Mar-26 03:33N 29°50' W 091°57'5 4.9
2017-Mar-26 02:34N 29°49' W 092°02'5 4.7
2017-Mar-26 01:33N 29°47' W 092°08'4 3.9
2017-Mar-26 00:33N 29°47' W 092°12'2 1.8
2017-Mar-25 23:33N 29°48' W 092°14'1 1.3
2017-Mar-25 22:33N 29°48' W 092°15'0 0.1
2017-Mar-25 21:34N 29°48' W 092°15'0 0.0
2017-Mar-25 20:33N 29°48' W 092°15'0 0.0
2017-Mar-25 19:33N 29°48' W 092°15'0 0.0
2017-Mar-25 18:33N 29°48' W 092°15'0 0.1
2017-Mar-25 17:33N 29°48' W 092°15'0 0.3
2017-Mar-25 16:33N 29°48' W 092°16'1 0.5
2017-Mar-25 15:33N 29°49' W 092°16'3 3.4
2017-Mar-25 14:33N 29°50' W 092°19'3 3.5
2017-Mar-25 13:33N 29°52' W 092°23'6 4.2
2017-Mar-25 12:04N 29°54' W 092°30'29 3.3
2017-Mar-25 03:25N 29°56' W 093°02'3 3.0
2017-Mar-25 02:31N 29°56' W 093°06'3 3.6
2017-Mar-25 01:33N 29°56' W 093°10'4 3.9
2017-Mar-25 00:33N 29°59' W 093°12'4 3.5
2017-Mar-24 23:33N 30°02' W 093°15'3 3.3
2017-Mar-24 22:33N 30°05' W 093°17'2 2.1
2017-Mar-24 21:33N 30°06' W 093°19'0 0.3
2017-Mar-24 20:33N 30°06' W 093°19'0 0.0
2017-Mar-24 19:33N 30°06' W 093°19'0 0.0
2017-Mar-24 18:33N 30°06' W 093°19'0 0.0
2017-Mar-24 17:33N 30°06' W 093°19'1 1.4
2017-Mar-24 16:33N 30°05' W 093°20'3 2.7
2017-Mar-24 15:33N 30°04' W 093°23'4 3.5
2017-Mar-24 14:33N 30°04' W 093°27'3 3.2
2017-Mar-24 13:33N 30°04' W 093°30'4 3.9
2017-Mar-24 12:33N 30°04' W 093°35'4 4.4
2017-Mar-24 11:33N 30°04' W 093°40'13 1.6
2017-Mar-24 03:33N 29°56' W 093°52'21 1.6
2017-Mar-23 14:33N 29°41' W 094°09'4 3.4
2017-Mar-23 13:26N 29°40' W 094°14'35 2.9
2017-Mar-23 01:21N 29°30' W 094°53'4 5.4
2017-Mar-23 00:33N 29°34' W 094°55'6 5.9
2017-Mar-22 23:33N 29°39' W 094°58'5 4.7
2017-Mar-22 22:33N 29°43' W 095°01'4 3.8
2017-Mar-22 21:25N 29°45' W 095°06'1 0.1
2017-Mar-22 16:31N 29°46' W 095°05'4 4.4
2017-Mar-22 15:33N 29°43' W 095°01'6 5.6
2017-Mar-22 14:33N 29°39' W 094°58'7 6.6
2017-Mar-22 13:33N 29°33' W 094°54'71 3.4
2017-Mar-21 16:33N 30°04' W 093°41'4 4.2
2017-Mar-21 15:33N 30°04' W 093°36'4 3.5
2017-Mar-21 14:33N 30°04' W 093°32'4 3.8
2017-Mar-21 13:33N 30°04' W 093°28'4 3.7
2017-Mar-21 12:33N 30°04' W 093°23'3 2.6
2017-Mar-21 11:33N 30°04' W 093°20'2 2.2
2017-Mar-21 10:33N 30°06' W 093°19'2 1.6
2017-Mar-21 09:33N 30°05' W 093°17'2 1.6
2017-Mar-21 08:33N 30°04' W 093°16'1 0.9
2017-Mar-21 07:34N 30°03' W 093°16'2 2.1
2017-Mar-21 06:33N 30°02' W 093°14'4 3.6
2017-Mar-21 05:33N 29°59' W 093°12'4 3.6
2017-Mar-21 04:33N 29°56' W 093°09'8 0.6
2017-Mar-20 14:32N 29°56' W 092°60'4 3.3
2017-Mar-20 13:28N 29°56' W 093°04'3 3.1
2017-Mar-20 12:33N 29°56' W 093°07'3 2.6
2017-Mar-20 11:34N 29°57' W 093°10'4 3.6
2017-Mar-20 10:33N 29°59' W 093°13'4 3.7
2017-Mar-20 09:33N 30°02' W 093°16'4 3.5
2017-Mar-20 08:33N 30°05' W 093°18'2 1.5
2017-Mar-20 07:33N 30°06' W 093°19'3 2.7
2017-Mar-20 06:33N 30°04' W 093°22'0 0.0
2017-Mar-20 05:33N 30°04' W 093°22'1 1.0
2017-Mar-20 04:33N 30°04' W 093°23'3 2.5
2017-Mar-20 03:33N 30°04' W 093°26'5 4.6
2017-Mar-20 02:33N 30°04' W 093°31'5 4.6
2017-Mar-20 01:33N 30°04' W 093°36'5 4.6
2017-Mar-20 00:33N 30°04' W 093°42'  

Dump ship's entire track history